createdAt,value
2023-03-22T00:01:41.675Z,9.23
2023-03-22T00:04:14.655Z,9.30
2023-03-22T00:06:48.117Z,9.24
2023-03-22T00:09:21.111Z,9.18
2023-03-22T00:11:57.421Z,9.37
2023-03-22T00:14:32.218Z,9.42
2023-03-22T00:17:05.627Z,9.37
2023-03-22T00:19:42.194Z,9.44
2023-03-22T00:22:16.287Z,9.37
2023-03-22T00:24:49.257Z,9.33
2023-03-22T00:27:22.185Z,9.29
2023-03-22T00:29:56.651Z,9.08
2023-03-22T00:32:29.740Z,9.17
2023-03-22T00:35:03.467Z,9.02
2023-03-22T00:37:38.708Z,9.11
2023-03-22T00:40:13.233Z,9.19
2023-03-22T00:42:46.244Z,9.11
2023-03-22T00:45:21.010Z,9.15
2023-03-22T00:47:54.509Z,8.99
2023-03-22T00:50:27.781Z,8.87
2023-03-22T00:53:00.984Z,8.87
2023-03-22T00:55:34.214Z,9.09
2023-03-22T00:58:07.188Z,9.00
2023-03-22T01:00:42.015Z,8.96
2023-03-22T01:03:16.311Z,8.92
2023-03-22T01:05:50.563Z,8.85
2023-03-22T01:08:23.808Z,8.92
2023-03-22T01:10:56.869Z,8.93
2023-03-22T01:13:30.876Z,8.77
2023-03-22T01:16:06.304Z,8.84
2023-03-22T01:18:39.561Z,8.88
2023-03-22T01:21:12.431Z,8.98
2023-03-22T01:23:45.353Z,8.87
2023-03-22T01:26:18.327Z,8.92
2023-03-22T01:28:51.500Z,8.86
2023-03-22T01:31:25.852Z,8.89
2023-03-22T01:33:59.795Z,8.90
2023-03-22T01:36:32.987Z,8.94
2023-03-22T01:39:06.162Z,8.88
2023-03-22T01:41:39.060Z,9.06
2023-03-22T01:44:13.393Z,8.99
2023-03-22T01:46:48.465Z,9.03
2023-03-22T01:49:24.686Z,8.86
2023-03-22T01:52:01.562Z,8.90
2023-03-22T01:54:36.999Z,8.84
2023-03-22T01:57:10.541Z,8.86
2023-03-22T01:59:45.062Z,8.77
2023-03-22T02:02:20.064Z,8.76
2023-03-22T02:04:58.199Z,8.66
2023-03-22T02:07:31.839Z,8.53
2023-03-22T02:10:05.251Z,8.65
2023-03-22T02:12:45.332Z,8.56
2023-03-22T02:15:21.359Z,8.44
2023-03-22T02:18:07.101Z,8.52
2023-03-22T02:20:58.685Z,8.63
2023-03-22T02:23:46.537Z,8.65
2023-03-22T02:26:49.586Z,8.68
2023-03-22T02:29:30.068Z,8.63
2023-03-22T02:32:21.709Z,8.27
2023-03-22T02:35:21.701Z,8.65
2023-03-22T02:38:18.752Z,8.52
2023-03-22T02:40:55.024Z,8.57
2023-03-22T02:43:38.477Z,8.57
2023-03-22T02:46:15.419Z,8.59
2023-03-22T02:48:54.183Z,8.49
2023-03-22T02:51:30.797Z,8.50
2023-03-22T02:54:05.544Z,8.50
2023-03-22T02:56:42.834Z,8.55
2023-03-22T02:59:16.693Z,8.54
2023-03-22T03:01:51.815Z,8.49
2023-03-22T03:04:27.583Z,8.44
2023-03-22T03:07:04.045Z,8.34
2023-03-22T03:09:37.985Z,8.32
2023-03-22T03:12:18.891Z,8.44
2023-03-22T03:14:52.839Z,8.43
2023-03-22T03:17:33.969Z,8.45
2023-03-22T03:20:15.070Z,8.44
2023-03-22T03:22:53.287Z,8.36
2023-03-22T03:25:28.732Z,8.42
2023-03-22T03:28:06.001Z,8.34
2023-03-22T03:30:46.293Z,8.39
2023-03-22T03:33:21.610Z,8.39
2023-03-22T03:35:58.133Z,8.35
2023-03-22T03:38:32.896Z,8.29
2023-03-22T03:41:07.793Z,8.42
2023-03-22T03:43:43.500Z,8.24
2023-03-22T03:46:17.285Z,8.33
2023-03-22T03:48:51.919Z,8.23
2023-03-22T03:51:25.293Z,8.21
2023-03-22T03:53:58.645Z,8.24
2023-03-22T03:56:31.625Z,8.19
2023-03-22T03:59:08.356Z,8.35
2023-03-22T04:01:41.278Z,8.25
2023-03-22T04:04:15.317Z,8.37
2023-03-22T04:06:49.096Z,8.25
2023-03-22T04:09:22.180Z,8.22
2023-03-22T04:11:56.523Z,8.35
2023-03-22T04:14:31.462Z,8.42
2023-03-22T04:17:05.239Z,8.22
2023-03-22T04:19:38.467Z,8.13
2023-03-22T04:22:18.509Z,8.12
2023-03-22T04:24:51.497Z,8.20
2023-03-22T04:27:24.667Z,8.18
2023-03-22T04:30:01.056Z,8.11
2023-03-22T04:32:34.480Z,8.24
2023-03-22T04:35:08.007Z,8.12
2023-03-22T04:37:41.782Z,8.13
2023-03-22T04:40:17.163Z,8.11
2023-03-22T04:42:51.453Z,8.19
2023-03-22T04:45:29.319Z,8.08
2023-03-22T04:48:02.702Z,8.16
2023-03-22T04:50:35.665Z,8.17
2023-03-22T04:53:08.588Z,8.05
2023-03-22T04:55:41.628Z,7.98
2023-03-22T04:58:16.547Z,8.09
2023-03-22T05:00:52.777Z,8.16
2023-03-22T05:03:26.173Z,8.33
2023-03-22T05:06:00.305Z,8.26
2023-03-22T05:08:34.872Z,8.15
2023-03-22T05:11:09.437Z,8.08
2023-03-22T05:13:43.444Z,8.17
2023-03-22T05:16:18.316Z,8.17
2023-03-22T05:18:54.444Z,8.09
2023-03-22T05:21:29.267Z,8.14
2023-03-22T05:24:02.184Z,8.26
2023-03-22T05:26:38.107Z,8.27
2023-03-22T05:29:11.494Z,8.29
2023-03-22T05:31:46.081Z,8.23
2023-03-22T05:34:20.377Z,8.22
2023-03-22T05:36:53.498Z,8.11
2023-03-22T05:39:26.520Z,7.94
2023-03-22T05:41:59.870Z,8.09
2023-03-22T05:44:32.903Z,8.12
2023-03-22T05:47:07.511Z,8.19
2023-03-22T05:49:40.418Z,8.17
2023-03-22T05:52:13.651Z,8.23
2023-03-22T05:54:47.966Z,8.19
2023-03-22T05:57:21.243Z,8.40
2023-03-22T05:59:54.510Z,8.34
2023-03-22T06:02:29.149Z,8.39
2023-03-22T06:05:02.171Z,8.28
2023-03-22T06:07:35.980Z,8.22
2023-03-22T06:10:12.282Z,8.32
2023-03-22T06:12:45.560Z,8.26
2023-03-22T06:15:18.796Z,8.19
2023-03-22T06:17:53.171Z,8.21
2023-03-22T06:20:26.909Z,8.38
2023-03-22T06:23:00.232Z,8.37
2023-03-22T06:25:33.529Z,8.40
2023-03-22T06:28:08.685Z,8.50
2023-03-22T06:30:42.269Z,8.35
2023-03-22T06:33:17.172Z,8.44
2023-03-22T06:35:50.208Z,8.45
2023-03-22T06:38:23.500Z,8.45
2023-03-22T06:40:56.692Z,8.42
2023-03-22T06:43:29.965Z,8.37
2023-03-22T06:46:03.298Z,8.39
2023-03-22T06:48:37.592Z,8.53
2023-03-22T06:51:11.048Z,8.52
2023-03-22T06:53:45.402Z,8.36
2023-03-22T06:56:18.743Z,8.37
2023-03-22T06:58:52.557Z,8.30
2023-03-22T07:01:26.530Z,8.32
2023-03-22T07:04:01.263Z,8.28
2023-03-22T07:06:34.207Z,8.17
2023-03-22T07:09:07.500Z,8.31
2023-03-22T07:11:41.313Z,8.32
2023-03-22T07:14:14.816Z,8.41
2023-03-22T07:16:48.072Z,8.40
2023-03-22T07:19:22.436Z,8.37
2023-03-22T07:21:55.460Z,8.34
2023-03-22T07:24:29.950Z,8.32
2023-03-22T07:27:03.250Z,8.38
2023-03-22T07:29:36.245Z,8.42
2023-03-22T07:32:09.315Z,8.44
2023-03-22T07:34:43.778Z,8.43
2023-03-22T07:37:17.007Z,8.48
2023-03-22T07:39:50.205Z,8.40
2023-03-22T07:42:23.516Z,8.50
2023-03-22T07:44:56.531Z,8.54
2023-03-22T07:47:40.393Z,8.52
2023-03-22T07:50:16.970Z,8.60
2023-03-22T07:52:50.285Z,8.59
2023-03-22T07:55:23.430Z,8.64
2023-03-22T07:57:56.547Z,8.66
2023-03-22T08:00:30.532Z,8.51
2023-03-22T08:03:03.663Z,8.62
2023-03-22T08:05:40.764Z,8.63
2023-03-22T08:08:14.394Z,8.72
2023-03-22T08:10:49.808Z,8.77
2023-03-22T08:13:23.740Z,8.99
2023-03-22T08:15:57.051Z,8.86
2023-03-22T08:18:30.616Z,8.89
2023-03-22T08:21:05.478Z,8.98
2023-03-22T08:23:42.188Z,8.94
2023-03-22T08:26:15.987Z,9.06
2023-03-22T08:28:49.164Z,9.14
2023-03-22T08:31:22.738Z,9.12
2023-03-22T08:33:56.274Z,9.11
2023-03-22T08:36:31.328Z,9.18
2023-03-22T08:39:04.718Z,9.21
2023-03-22T08:41:37.646Z,9.14
2023-03-22T08:44:10.820Z,9.21
2023-03-22T08:46:43.923Z,9.39
2023-03-22T08:49:17.167Z,9.43
2023-03-22T08:51:51.676Z,9.39
2023-03-22T08:54:25.155Z,9.72
2023-03-22T08:56:59.205Z,9.57
2023-03-22T08:59:32.651Z,9.72
2023-03-22T09:02:06.006Z,9.73
2023-03-22T09:04:39.626Z,9.71
2023-03-22T09:07:13.928Z,9.67
2023-03-22T09:09:47.290Z,9.67
2023-03-22T09:12:21.110Z,9.45
2023-03-22T09:14:56.863Z,9.83
2023-03-22T09:17:30.524Z,9.79
2023-03-22T09:20:12.498Z,9.83
2023-03-22T09:22:47.652Z,9.71
2023-03-22T09:25:21.358Z,9.72
2023-03-22T09:27:54.565Z,9.67
2023-03-22T09:30:28.112Z,9.70
2023-03-22T09:33:01.584Z,9.68
2023-03-22T09:35:34.527Z,9.75
2023-03-22T09:38:09.160Z,9.83
2023-03-22T09:40:47.429Z,9.96
2023-03-22T09:43:20.969Z,10.16
2023-03-22T09:45:54.071Z,10.14
2023-03-22T09:48:30.022Z,10.23
2023-03-22T09:51:03.876Z,10.29
2023-03-22T09:53:38.339Z,10.34
2023-03-22T09:56:15.446Z,10.54
2023-03-22T09:58:52.304Z,10.50
2023-03-22T10:01:30.128Z,10.39
2023-03-22T10:04:07.469Z,10.53
2023-03-22T10:06:41.374Z,10.57
2023-03-22T10:09:20.450Z,10.70
2023-03-22T10:12:05.072Z,10.46
2023-03-22T10:14:41.387Z,10.49
2023-03-22T10:17:17.582Z,10.29
2023-03-22T10:19:53.268Z,10.54
2023-03-22T10:22:30.219Z,10.60
2023-03-22T10:25:06.131Z,10.56
2023-03-22T10:27:39.206Z,10.18
2023-03-22T10:30:20.939Z,10.48
2023-03-22T10:32:58.388Z,10.40
2023-03-22T10:35:32.252Z,10.41
2023-03-22T10:38:08.122Z,10.17
2023-03-22T10:40:42.535Z,10.37
2023-03-22T10:43:18.491Z,10.51
2023-03-22T10:45:53.302Z,10.68
2023-03-22T10:48:29.029Z,10.73
2023-03-22T10:51:02.295Z,10.92
2023-03-22T10:53:38.594Z,10.79
2023-03-22T10:56:15.563Z,10.89
2023-03-22T10:58:49.747Z,11.03
2023-03-22T11:01:28.030Z,11.06
2023-03-22T11:04:07.460Z,10.85
2023-03-22T11:06:41.497Z,11.00
2023-03-22T11:09:17.759Z,11.03
2023-03-22T11:12:00.900Z,11.03
2023-03-22T11:14:36.834Z,11.16
2023-03-22T11:17:14.651Z,11.04
2023-03-22T11:19:53.041Z,11.21
2023-03-22T11:22:27.639Z,11.13
2023-03-22T11:25:01.793Z,11.17
2023-03-22T11:27:39.494Z,11.20
2023-03-22T11:30:20.092Z,11.15
2023-03-22T11:33:01.258Z,11.05
2023-03-22T11:35:36.702Z,10.95
2023-03-22T11:38:23.825Z,10.87
2023-03-22T11:40:57.845Z,11.01
2023-03-22T11:43:35.880Z,11.12
2023-03-22T11:46:09.756Z,10.95
2023-03-22T11:48:43.341Z,11.11
2023-03-22T11:51:20.783Z,11.32
2023-03-22T11:53:56.894Z,11.25
2023-03-22T11:56:31.745Z,11.46
2023-03-22T11:59:07.906Z,11.49
2023-03-22T12:01:43.983Z,11.59
2023-03-22T12:04:21.126Z,11.53
2023-03-22T12:06:56.812Z,11.54
2023-03-22T12:09:36.804Z,11.22
2023-03-22T12:12:15.058Z,11.39
2023-03-22T12:14:52.844Z,11.41
2023-03-22T12:17:30.297Z,11.58
2023-03-22T12:20:08.416Z,11.67
2023-03-22T12:22:43.496Z,11.66
2023-03-22T12:25:17.773Z,11.76
2023-03-22T12:27:54.648Z,11.49
2023-03-22T12:30:32.174Z,11.50
2023-03-22T12:33:07.842Z,11.65
2023-03-22T12:35:44.349Z,11.66
2023-03-22T12:38:24.956Z,11.72
2023-03-22T12:40:59.160Z,11.78
2023-03-22T12:43:49.701Z,11.82
2023-03-22T12:46:26.323Z,11.87
2023-03-22T12:49:04.015Z,11.95
2023-03-22T12:51:37.836Z,11.99
2023-03-22T12:54:12.903Z,12.04
2023-03-22T12:56:47.325Z,11.80
2023-03-22T12:59:23.464Z,11.77
2023-03-22T13:02:00.306Z,11.85
2023-03-22T13:04:46.883Z,11.90
2023-03-22T13:07:32.776Z,11.88
2023-03-22T13:10:24.442Z,11.90
2023-03-22T13:13:12.168Z,12.02
2023-03-22T13:15:59.760Z,11.98
2023-03-22T13:18:42.450Z,12.00
2023-03-22T13:21:19.205Z,11.97
2023-03-22T13:23:57.619Z,12.04
2023-03-22T13:26:34.722Z,12.02
2023-03-22T13:29:12.208Z,12.09
2023-03-22T13:31:46.553Z,12.16
2023-03-22T13:34:22.491Z,12.25
2023-03-22T13:36:57.098Z,12.44
2023-03-22T13:39:34.698Z,12.47
2023-03-22T13:42:09.697Z,12.38
2023-03-22T13:44:46.042Z,12.39
2023-03-22T13:47:32.781Z,12.40
2023-03-22T13:50:16.224Z,12.47
2023-03-22T13:52:53.981Z,12.43
2023-03-22T13:55:42.536Z,12.36
2023-03-22T13:58:31.150Z,12.34
2023-03-22T14:01:07.026Z,12.38
2023-03-22T14:03:42.895Z,12.38
2023-03-22T14:06:23.334Z,12.31
2023-03-22T14:08:58.365Z,12.31
2023-03-22T14:11:34.173Z,12.39
2023-03-22T14:14:12.284Z,12.34
2023-03-22T14:16:48.025Z,12.29
2023-03-22T14:19:23.286Z,12.28
